Ffestiniog, United Kingdom
Current Conditions -  °F | °C
As of 7:50 AM on Wednesday 22 Oct 2014 (Local Time) from EGOV Reporting Station
Broken Clouds Broken Clouds  
Wind Chill: 54°   Ceiling: 10000
Heat Index: 54°   Visibility: 6mi
Dew Point: 45°   Wind: 18mph
Humidity: 72%   Direction: 270°W
Pressure: 30.24"   Gusts: NA
Location:  52.96°N, 3.94°W
Report Text: EGOV 220650Z 27016KT 9999 FEW028 SCT070 BKN100 12/07 Q1024 BLU NOSIG
Loading
Personal Weather Stations






























Interactive Weather Map
Tropical Storm Tracking
New forecast layout! Learn more

10-Day Weather Forecast

Advertisements
Track Severe Weather on mobile